Time;durP1;ratioP1;P1;durP2;ratioP2;P2;SDS_P1;SDS_P2;PMS_P1;PMS_P2;Temp;Humidity;BMP_temperature;BMP_pressure;BME280_temperature;BME280_humidity;BME280_pressure;Samples;Min_cycle;Max_cycle;Signal;HPM_P1;HPM_P2
2022/07/31 00:00:09;;;;;;;1.70;0.90;;;18.50;98.70;;;;;;5043574;28;20501;-75
2022/07/31 00:02:36;;;;;;;1.83;1.00;;;18.50;98.60;;;;;;5040666;28;20137;-75
2022/07/31 00:05:03;;;;;;;1.30;0.98;;;18.50;98.70;;;;;;5039809;28;20045;-75
2022/07/31 00:07:29;;;;;;;1.05;0.75;;;18.40;98.70;;;;;;5025271;28;20033;-75
2022/07/31 00:09:55;;;;;;;1.13;0.70;;;18.40;98.60;;;;;;5041537;28;20501;-75
2022/07/31 00:12:21;;;;;;;1.50;0.90;;;18.40;98.70;;;;;;5040463;28;20082;-75
2022/07/31 00:14:47;;;;;;;2.67;0.63;;;18.40;98.80;;;;;;5041197;28;21006;-75
2022/07/31 00:17:13;;;;;;;1.75;1.00;;;18.40;98.70;;;;;;5040912;28;20098;-75
2022/07/31 00:19:40;;;;;;;1.23;0.90;;;18.40;98.70;;;;;;5041325;28;20048;-75
2022/07/31 00:22:06;;;;;;;2.60;1.15;;;18.30;98.60;;;;;;5038729;28;20101;-75
2022/07/31 00:24:32;;;;;;;2.25;1.17;;;18.30;98.70;;;;;;5041904;28;21873;-75
2022/07/31 00:26:57;;;;;;;1.90;0.95;;;18.30;98.70;;;;;;5020762;28;20045;-75
2022/07/31 00:29:23;;;;;;;1.70;0.90;;;18.30;98.70;;;;;;5039648;28;20049;-75
2022/07/31 00:31:49;;;;;;;1.90;1.10;;;18.30;98.60;;;;;;5024126;28;20041;-75
2022/07/31 00:34:14;;;;;;;2.33;1.05;;;18.30;98.60;;;;;;5025949;28;20128;-75
2022/07/31 00:36:40;;;;;;;1.60;1.05;;;18.30;98.70;;;;;;5043099;28;20430;-75
2022/07/31 00:39:05;;;;;;;2.10;1.00;;;18.20;98.70;;;;;;5038531;28;20044;-75
2022/07/31 00:41:44;;;;;;;2.10;0.95;;;18.20;98.80;;;;;;5037912;28;20038;-75
2022/07/31 00:44:11;;;;;;;1.45;0.98;;;18.10;99.10;;;;;;5037454;28;20049;-75
2022/07/31 00:46:36;;;;;;;2.47;1.10;;;18.10;98.90;;;;;;5038260;28;20277;-75
2022/07/31 00:49:02;;;;;;;2.28;1.15;;;18.00;99.00;;;;;;5040689;28;20087;-75
2022/07/31 00:51:28;;;;;;;1.48;0.90;;;18.10;99.00;;;;;;5041828;28;21577;-75
2022/07/31 00:53:54;;;;;;;1.80;1.10;;;18.10;99.00;;;;;;5039960;28;20127;-75
2022/07/31 00:56:20;;;;;;;1.35;0.90;;;18.00;99.10;;;;;;5039597;28;20087;-75
2022/07/31 00:58:46;;;;;;;1.83;1.10;;;18.00;99.10;;;;;;5041109;28;20049;-75
2022/07/31 01:01:12;;;;;;;1.63;0.90;;;17.90;99.20;;;;;;5024443;28;20056;-75
2022/07/31 01:03:38;;;;;;;2.10;1.17;;;17.90;99.20;;;;;;5036182;28;20036;-75
2022/07/31 01:06:03;;;;;;;3.60;1.00;;;17.90;99.20;;;;;;5021807;28;20029;-75
2022/07/31 01:08:29;;;;;;;1.42;0.93;;;17.90;99.30;;;;;;5039122;28;20567;-75
2022/07/31 01:11:04;;;;;;;1.67;0.93;;;17.90;99.40;;;;;;5035073;28;20125;-75
2022/07/31 01:13:49;;;;;;;2.80;1.20;;;17.90;99.50;;;;;;5038491;28;20104;-75
2022/07/31 01:16:17;;;;;;;1.70;1.00;;;17.80;99.80;;;;;;5039236;28;20044;-75
2022/07/31 01:18:43;;;;;;;1.77;0.95;;;17.80;99.30;;;;;;5022374;28;20128;-75
2022/07/31 01:21:16;;;;;;;1.50;0.90;;;17.80;99.30;;;;;;5040305;28;20033;-75
2022/07/31 01:24:04;;;;;;;2.53;1.25;;;17.80;99.40;;;;;;5038380;28;20068;-75
2022/07/31 01:26:52;;;;;;;2.00;1.20;;;17.80;99.60;;;;;;5038774;28;20072;-75
2022/07/31 01:29:27;;;;;;;3.13;0.95;;;17.80;99.70;;;;;;5036165;28;20056;-75
2022/07/31 01:32:07;;;;;;;1.58;1.00;;;17.80;99.40;;;;;;5040036;28;20071;-75
2022/07/31 01:34:51;;;;;;;1.25;0.80;;;17.80;99.50;;;;;;5023299;28;20037;-75
2022/07/31 01:37:31;;;;;;;1.00;0.77;;;17.80;99.60;;;;;;5037521;28;20039;-75
2022/07/31 01:40:02;;;;;;;5.03;1.02;;;17.80;99.60;;;;;;5040275;28;20071;-75
2022/07/31 01:42:29;;;;;;;1.52;0.90;;;17.80;99.30;;;;;;5038114;28;20612;-75
2022/07/31 01:44:58;;;;;;;1.50;1.10;;;17.80;99.30;;;;;;5041050;28;20120;-75
2022/07/31 01:47:26;;;;;;;2.47;1.10;;;17.80;99.30;;;;;;5021516;28;20076;-75
2022/07/31 01:49:54;;;;;;;1.10;0.73;;;17.70;99.20;;;;;;5039112;28;20040;-75
2022/07/31 01:52:23;;;;;;;1.27;0.93;;;17.80;99.20;;;;;;5022182;28;20064;-75
2022/07/31 01:54:50;;;;;;;1.90;1.30;;;17.80;99.20;;;;;;5038693;28;20429;-75
2022/07/31 01:57:17;;;;;;;1.60;1.00;;;17.80;99.10;;;;;;5020068;28;20405;-75
2022/07/31 01:59:44;;;;;;;2.92;1.08;;;17.80;98.90;;;;;;5037149;28;20049;-75
2022/07/31 02:02:11;;;;;;;1.65;0.93;;;17.80;98.90;;;;;;5045115;28;20094;-75
2022/07/31 02:04:37;;;;;;;1.98;1.00;;;17.80;98.80;;;;;;5038011;28;20385;-75
2022/07/31 02:07:03;;;;;;;2.97;1.50;;;17.80;98.70;;;;;;5037648;28;20045;-75
2022/07/31 02:09:31;;;;;;;1.42;0.80;;;17.80;98.70;;;;;;5036704;28;20125;-75
2022/07/31 02:11:58;;;;;;;1.52;0.80;;;17.80;98.60;;;;;;5038740;28;20082;-75
2022/07/31 02:14:25;;;;;;;1.50;1.00;;;17.80;98.60;;;;;;5038274;28;20041;-75
2022/07/31 02:16:51;;;;;;;1.90;1.10;;;17.80;98.50;;;;;;5038811;28;20033;-75
2022/07/31 02:19:18;;;;;;;1.83;1.13;;;17.80;98.50;;;;;;5037270;28;20473;-75
2022/07/31 02:21:44;;;;;;;1.20;0.70;;;17.80;98.50;;;;;;5036725;28;20036;-75
2022/07/31 02:24:10;;;;;;;2.92;0.95;;;17.80;98.40;;;;;;5037537;28;20033;-75
2022/07/31 02:26:36;;;;;;;2.55;1.05;;;17.80;98.40;;;;;;5037117;28;20041;-75
2022/07/31 02:29:03;;;;;;;1.88;1.15;;;17.80;98.30;;;;;;5040053;28;20037;-75
2022/07/31 02:31:31;;;;;;;1.95;0.73;;;17.90;98.30;;;;;;5037502;28;20114;-75
2022/07/31 02:33:57;;;;;;;2.95;0.70;;;17.90;98.30;;;;;;5038396;28;20486;-75
2022/07/31 02:36:24;;;;;;;1.13;0.65;;;17.80;98.20;;;;;;5035448;28;20068;-75
2022/07/31 02:38:51;;;;;;;1.50;0.93;;;17.90;98.20;;;;;;5039700;28;20037;-75
2022/07/31 02:41:20;;;;;;;1.60;0.90;;;17.90;98.20;;;;;;5037728;28;20044;-75
2022/07/31 02:43:46;;;;;;;1.70;0.75;;;17.90;98.10;;;;;;5036379;28;20049;-75
2022/07/31 02:46:13;;;;;;;1.35;0.82;;;17.90;98.10;;;;;;5037945;28;20044;-75
2022/07/31 02:48:40;;;;;;;1.80;1.10;;;17.90;98.10;;;;;;5038601;28;20033;-75
2022/07/31 02:51:07;;;;;;;1.90;1.00;;;17.80;98.10;;;;;;5037586;28;20121;-75
2022/07/31 02:53:33;;;;;;;2.35;0.95;;;17.90;98.10;;;;;;5036505;28;20049;-75
2022/07/31 02:56:01;;;;;;;1.40;0.80;;;17.90;98.00;;;;;;5055685;28;20069;-75
2022/07/31 02:58:26;;;;;;;1.67;0.90;;;17.90;98.00;;;;;;5038914;28;20521;-75
2022/07/31 03:01:00;;;;;;;1.48;0.82;;;17.90;97.90;;;;;;5036940;28;20036;-75
2022/07/31 03:03:26;;;;;;;1.58;0.90;;;17.90;97.90;;;;;;5035738;28;20065;-75
2022/07/31 03:05:51;;;;;;;1.35;0.85;;;17.90;97.90;;;;;;5021678;28;20164;-75
2022/07/31 03:08:17;;;;;;;2.85;0.75;;;17.90;97.90;;;;;;5038816;28;20041;-75
2022/07/31 03:10:43;;;;;;;1.17;0.63;;;17.80;97.80;;;;;;5041779;28;20033;-75
2022/07/31 03:13:10;;;;;;;2.28;1.00;;;17.90;97.90;;;;;;5043052;28;20391;-75
2022/07/31 03:15:38;;;;;;;2.03;0.90;;;17.80;97.80;;;;;;5041953;28;20052;-75
2022/07/31 03:18:05;;;;;;;1.65;0.93;;;17.80;97.80;;;;;;5040666;28;20049;-75
2022/07/31 03:20:31;;;;;;;2.15;1.00;;;17.80;97.80;;;;;;5042404;28;20052;-75
2022/07/31 03:22:58;;;;;;;1.17;0.80;;;17.90;97.80;;;;;;5040760;28;20049;-75
2022/07/31 03:25:25;;;;;;;1.63;0.80;;;17.80;97.80;;;;;;5040250;28;20045;-75
2022/07/31 03:27:52;;;;;;;1.50;0.90;;;17.90;97.80;;;;;;5041916;28;20060;-75
2022/07/31 03:30:23;;;;;;;1.42;0.70;;;17.80;97.70;;;;;;5041992;28;20136;-75
2022/07/31 03:32:50;;;;;;;1.63;0.80;;;17.80;97.60;;;;;;5040709;28;21425;-75
2022/07/31 03:35:16;;;;;;;1.23;0.85;;;17.80;97.70;;;;;;5041905;28;20045;-75
2022/07/31 03:37:42;;;;;;;2.00;0.98;;;17.80;97.60;;;;;;5039534;28;20041;-75
2022/07/31 03:40:08;;;;;;;1.10;0.65;;;17.80;97.60;;;;;;5041378;28;20044;-75
2022/07/31 03:42:34;;;;;;;1.90;1.00;;;17.80;97.60;;;;;;5036760;28;20487;-75
2022/07/31 03:45:01;;;;;;;5.00;1.05;;;17.80;97.50;;;;;;5024157;28;20037;-75
2022/07/31 03:47:27;;;;;;;2.08;1.10;;;17.80;97.60;;;;;;5041044;28;20102;-75
2022/07/31 03:49:53;;;;;;;1.60;0.95;;;17.80;97.50;;;;;;5040857;28;20036;-75
2022/07/31 03:52:19;;;;;;;1.30;0.85;;;17.80;97.50;;;;;;5023048;28;20055;-75
2022/07/31 03:54:44;;;;;;;1.70;1.00;;;17.80;97.50;;;;;;5040138;28;20450;-75
2022/07/31 03:57:11;;;;;;;1.75;0.93;;;17.80;97.50;;;;;;5040666;28;20041;-75
2022/07/31 03:59:37;;;;;;;2.08;1.00;;;17.80;97.50;;;;;;5025554;28;20111;-75
2022/07/31 04:02:03;;;;;;;1.55;0.98;;;17.80;97.50;;;;;;5041775;28;20131;-75
2022/07/31 04:04:28;;;;;;;1.45;0.68;;;17.70;97.50;;;;;;5026093;28;20160;-75
2022/07/31 04:06:54;;;;;;;2.15;0.95;;;17.70;97.50;;;;;;5023206;28;20526;-75
2022/07/31 04:09:19;;;;;;;1.98;1.10;;;17.70;97.50;;;;;;5038028;28;20032;-75
2022/07/31 04:11:45;;;;;;;1.70;1.10;;;17.70;97.50;;;;;;5041733;28;20040;-75
2022/07/31 04:14:11;;;;;;;1.17;0.77;;;17.80;97.50;;;;;;5041158;28;20414;-75
2022/07/31 04:16:36;;;;;;;1.38;0.90;;;17.80;97.60;;;;;;5023468;28;20033;-75
2022/07/31 04:19:02;;;;;;;1.80;1.13;;;17.80;97.50;;;;;;5040962;28;20033;-75
2022/07/31 04:21:28;;;;;;;2.15;1.15;;;17.80;97.50;;;;;;5029032;28;20439;-75
2022/07/31 04:23:53;;;;;;;2.03;0.93;;;17.80;97.50;;;;;;5020970;28;21435;-75
2022/07/31 04:26:20;;;;;;;1.45;1.00;;;17.80;97.50;;;;;;5022347;28;20549;-75
2022/07/31 04:28:45;;;;;;;1.83;0.77;;;17.80;97.90;;;;;;5023465;28;20106;-75
2022/07/31 04:31:11;;;;;;;3.35;1.00;;;17.80;97.60;;;;;;5040962;28;20045;-75
2022/07/31 04:33:36;;;;;;;2.05;1.30;;;17.80;97.60;;;;;;5040773;28;20064;-75
2022/07/31 04:36:02;;;;;;;1.95;1.10;;;17.80;97.60;;;;;;5024825;28;20055;-75
2022/07/31 04:38:28;;;;;;;3.00;0.77;;;17.90;97.60;;;;;;5037042;28;20075;-75
2022/07/31 04:40:54;;;;;;;1.40;0.90;;;17.90;97.60;;;;;;5041644;28;20082;-75
2022/07/31 04:43:19;;;;;;;1.58;0.88;;;17.80;97.60;;;;;;5022027;28;20475;-75
2022/07/31 04:45:45;;;;;;;2.33;1.10;;;18.00;97.70;;;;;;5024327;28;20063;-75
2022/07/31 04:48:10;;;;;;;2.65;1.02;;;18.00;97.80;;;;;;5026287;28;20033;-75
2022/07/31 04:50:36;;;;;;;2.17;0.98;;;18.00;97.90;;;;;;5040850;28;20178;-75
2022/07/31 04:53:02;;;;;;;1.50;1.10;;;18.00;97.90;;;;;;5040198;28;20033;-75
2022/07/31 04:55:28;;;;;;;2.03;1.23;;;18.00;97.90;;;;;;5041162;28;20457;-75
2022/07/31 04:57:53;;;;;;;1.60;1.10;;;18.00;97.90;;;;;;5038779;28;20053;-75
2022/07/31 05:00:19;;;;;;;2.70;1.20;;;18.00;98.00;;;;;;5040898;28;20041;-75
2022/07/31 05:02:45;;;;;;;2.80;1.15;;;18.00;98.10;;;;;;5039391;28;20052;-75
2022/07/31 05:05:10;;;;;;;1.88;1.00;;;18.00;98.10;;;;;;5040756;28;20152;-75
2022/07/31 05:07:37;;;;;;;2.25;1.38;;;18.00;98.10;;;;;;5038948;28;20245;-75
2022/07/31 05:10:04;;;;;;;1.42;0.90;;;18.00;98.20;;;;;;5056767;28;20642;-75
2022/07/31 05:12:29;;;;;;;2.25;0.90;;;18.00;98.20;;;;;;5038140;28;20135;-75
2022/07/31 05:14:55;;;;;;;2.70;1.02;;;18.00;98.20;;;;;;5039477;28;20124;-75
2022/07/31 05:17:21;;;;;;;2.15;1.10;;;18.00;98.30;;;;;;5023241;28;20040;-75
2022/07/31 05:19:46;;;;;;;1.92;1.10;;;18.00;98.30;;;;;;5020833;28;20076;-75
2022/07/31 05:22:12;;;;;;;1.92;1.35;;;18.00;98.40;;;;;;5039884;28;20056;-75
2022/07/31 05:24:39;;;;;;;2.70;1.33;;;18.00;98.40;;;;;;5020522;28;20044;-75
2022/07/31 05:27:04;;;;;;;2.70;1.20;;;18.00;98.40;;;;;;5037028;28;20402;-75
2022/07/31 05:29:32;;;;;;;2.20;1.15;;;18.00;98.40;;;;;;5038960;28;20028;-75
2022/07/31 05:31:58;;;;;;;2.13;1.25;;;18.00;98.40;;;;;;5038752;28;20036;-75
2022/07/31 05:34:24;;;;;;;2.17;1.20;;;18.00;98.50;;;;;;5039326;28;20033;-75
2022/07/31 05:36:49;;;;;;;1.75;0.98;;;18.00;98.50;;;;;;5039305;28;20047;-75
2022/07/31 05:39:16;;;;;;;2.75;1.52;;;18.10;98.60;;;;;;5037980;28;20028;-75
2022/07/31 05:41:42;;;;;;;3.00;1.30;;;18.00;98.60;;;;;;5038458;28;20072;-75
2022/07/31 05:44:07;;;;;;;1.75;1.00;;;18.10;98.70;;;;;;5022028;28;20072;-75
2022/07/31 05:46:33;;;;;;;2.25;1.08;;;18.10;98.60;;;;;;5038421;28;20037;-75
2022/07/31 05:48:59;;;;;;;1.83;1.00;;;18.10;98.70;;;;;;5037607;28;20041;-75
2022/07/31 05:51:24;;;;;;;2.45;1.00;;;18.10;98.70;;;;;;5038188;28;20137;-76
2022/07/31 05:53:50;;;;;;;4.22;1.40;;;18.20;98.70;;;;;;5038624;28;20029;-75
2022/07/31 05:56:16;;;;;;;3.30;1.38;;;18.20;98.70;;;;;;5021824;28;20041;-75
2022/07/31 05:58:44;;;;;;;2.53;1.23;;;18.20;98.80;;;;;;5041857;28;20129;-75
2022/07/31 06:01:09;;;;;;;3.03;1.48;;;18.20;98.80;;;;;;5034770;28;20402;-75
2022/07/31 06:03:35;;;;;;;2.80;1.40;;;18.20;98.90;;;;;;5039505;28;20500;-75
2022/07/31 06:06:04;;;;;;;3.88;1.50;;;18.30;98.90;;;;;;5037264;28;20037;-75
2022/07/31 06:08:30;;;;;;;3.05;1.23;;;18.30;99.00;;;;;;5034135;28;20083;-75
2022/07/31 06:10:56;;;;;;;2.03;1.05;;;18.30;99.00;;;;;;5039555;28;20072;-75
2022/07/31 06:13:26;;;;;;;2.20;1.38;;;18.40;99.00;;;;;;5038266;28;20041;-76
2022/07/31 06:15:52;;;;;;;2.38;1.35;;;18.40;99.10;;;;;;5038512;28;20049;-75
2022/07/31 06:18:18;;;;;;;2.13;1.33;;;18.50;99.00;;;;;;5036913;28;20486;-75
2022/07/31 06:20:44;;;;;;;2.20;1.40;;;18.50;99.00;;;;;;5037953;28;20048;-75
2022/07/31 06:23:09;;;;;;;2.92;1.55;;;18.50;99.00;;;;;;5034619;28;20083;-75
2022/07/31 06:25:35;;;;;;;2.88;1.30;;;18.50;99.00;;;;;;5024225;28;20029;-75
2022/07/31 06:28:00;;;;;;;4.82;1.70;;;18.50;99.10;;;;;;5037475;28;20048;-75
2022/07/31 06:30:26;;;;;;;2.45;1.30;;;18.50;99.00;;;;;;5039645;28;20183;-75
2022/07/31 06:32:52;;;;;;;2.97;1.27;;;18.50;99.10;;;;;;5037669;28;20276;-75
2022/07/31 06:35:17;;;;;;;2.47;1.30;;;18.40;99.10;;;;;;5039016;28;20041;-75
2022/07/31 06:37:43;;;;;;;2.08;1.20;;;18.40;99.20;;;;;;5036016;28;20048;-75
2022/07/31 06:40:10;;;;;;;1.92;1.30;;;18.50;99.20;;;;;;5038747;28;20498;-75
2022/07/31 06:42:35;;;;;;;1.95;1.38;;;18.50;99.20;;;;;;5038599;28;20037;-75
2022/07/31 06:45:01;;;;;;;2.15;1.40;;;18.50;99.20;;;;;;5038422;28;20090;-75
2022/07/31 06:47:26;;;;;;;2.00;1.20;;;18.50;99.20;;;;;;5022098;28;20063;-75
2022/07/31 06:49:53;;;;;;;3.33;1.67;;;18.60;99.20;;;;;;5037932;28;20064;-75
2022/07/31 06:52:19;;;;;;;3.53;1.50;;;18.60;99.30;;;;;;5037565;28;20040;-75
2022/07/31 06:54:46;;;;;;;2.42;1.30;;;18.70;99.20;;;;;;5035661;28;20063;-75
2022/07/31 06:57:12;;;;;;;1.90;1.52;;;18.70;99.20;;;;;;5037898;28;20040;-75
2022/07/31 06:59:38;;;;;;;2.00;1.15;;;18.70;99.20;;;;;;5034884;28;20116;-75
2022/07/31 07:02:04;;;;;;;2.85;1.42;;;18.70;99.10;;;;;;5040374;28;20124;-74
2022/07/31 07:04:30;;;;;;;2.38;1.60;;;18.80;99.00;;;;;;5036006;28;20082;-76
2022/07/31 07:06:55;;;;;;;2.53;1.38;;;18.80;99.10;;;;;;5037501;28;20131;-76
2022/07/31 07:09:21;;;;;;;2.20;1.33;;;18.90;99.10;;;;;;5020447;28;20075;-76
2022/07/31 07:11:46;;;;;;;3.03;1.63;;;18.90;99.00;;;;;;5038029;28;20530;-75
2022/07/31 07:14:15;;;;;;;2.10;1.30;;;18.90;98.90;;;;;;5038283;28;20143;-74
2022/07/31 07:16:41;;;;;;;2.72;1.45;;;18.90;98.80;;;;;;5035659;28;20041;-76
2022/07/31 07:19:06;;;;;;;2.45;1.60;;;18.90;98.80;;;;;;5018222;28;20677;-75
2022/07/31 07:21:32;;;;;;;3.15;1.77;;;19.00;98.80;;;;;;5034626;28;20068;-75
2022/07/31 07:23:58;;;;;;;4.55;1.40;;;19.00;98.70;;;;;;5017645;28;20052;-75
2022/07/31 07:26:23;;;;;;;2.63;1.45;;;19.00;98.70;;;;;;5020569;28;20984;-75
2022/07/31 07:28:49;;;;;;;2.17;1.52;;;19.00;98.80;;;;;;5029781;28;20053;-76
2022/07/31 07:31:15;;;;;;;2.38;1.45;;;19.00;98.80;;;;;;5034433;28;20084;-75
2022/07/31 07:33:41;;;;;;;3.47;1.75;;;19.10;98.80;;;;;;5034449;28;20033;-75
2022/07/31 07:36:06;;;;;;;3.10;1.65;;;19.10;98.70;;;;;;5034695;28;20376;-75
2022/07/31 07:38:32;;;;;;;3.92;2.40;;;19.10;98.80;;;;;;5033954;28;20037;-75
2022/07/31 07:40:57;;;;;;;2.95;1.80;;;19.10;98.70;;;;;;5037012;28;20525;-75
2022/07/31 07:43:23;;;;;;;3.10;1.70;;;19.20;98.80;;;;;;5035459;28;20036;-75
2022/07/31 07:45:49;;;;;;;3.22;2.15;;;19.20;98.80;;;;;;5034602;28;20041;-75
2022/07/31 07:48:14;;;;;;;4.60;2.08;;;19.30;98.70;;;;;;5035935;28;20517;-75
2022/07/31 07:50:40;;;;;;;3.80;2.28;;;19.40;98.70;;;;;;5021089;28;20029;-75
2022/07/31 07:53:07;;;;;;;3.08;1.63;;;19.30;98.70;;;;;;5033141;28;20040;-75
2022/07/31 07:55:32;;;;;;;3.70;1.85;;;19.40;98.70;;;;;;5039299;28;20053;-75
2022/07/31 07:57:58;;;;;;;2.55;1.65;;;19.40;98.70;;;;;;5037531;28;20033;-75
2022/07/31 08:00:23;;;;;;;5.00;2.50;;;19.50;98.80;;;;;;5036881;28;20052;-75
2022/07/31 08:02:50;;;;;;;4.35;2.55;;;19.60;98.70;;;;;;5040231;28;20067;-75
2022/07/31 08:05:16;;;;;;;3.53;2.25;;;19.70;98.70;;;;;;5036413;28;20068;-75
2022/07/31 08:07:42;;;;;;;4.15;2.20;;;19.70;98.60;;;;;;5033397;28;20139;-75
2022/07/31 08:10:08;;;;;;;3.17;2.10;;;19.80;98.60;;;;;;5036727;28;20037;-75
2022/07/31 08:12:35;;;;;;;3.85;2.33;;;19.80;98.60;;;;;;5036499;28;20116;-75
2022/07/31 08:15:00;;;;;;;3.70;2.25;;;19.90;98.50;;;;;;5037113;28;20486;-76
2022/07/31 08:17:26;;;;;;;4.20;2.45;;;20.00;98.60;;;;;;5036601;28;20052;-75
2022/07/31 08:19:52;;;;;;;3.03;2.00;;;19.90;98.50;;;;;;5054464;28;20391;-76
2022/07/31 08:22:18;;;;;;;3.33;2.10;;;19.90;98.60;;;;;;5019573;28;20021;-76
2022/07/31 08:24:44;;;;;;;5.80;2.42;;;20.00;98.70;;;;;;5035152;28;20041;-76
2022/07/31 08:27:24;;;;;;;4.15;2.30;;;20.00;98.60;;;;;;5042453;28;20056;-75
2022/07/31 08:29:52;;;;;;;3.53;2.15;;;20.00;98.60;;;;;;5034525;28;20387;-76
2022/07/31 08:32:18;;;;;;;4.13;2.50;;;20.00;98.70;;;;;;5040098;28;20200;-76
2022/07/31 08:34:43;;;;;;;3.85;2.53;;;20.00;98.70;;;;;;5039336;28;20427;-76
2022/07/31 08:37:09;;;;;;;4.00;2.30;;;20.10;98.80;;;;;;5040573;28;20033;-76
2022/07/31 08:39:36;;;;;;;4.43;2.40;;;20.20;98.80;;;;;;5036932;28;20486;-76
2022/07/31 08:42:09;;;;;;;4.35;2.25;;;20.20;98.80;;;;;;5034730;28;20032;-75
2022/07/31 08:44:40;;;;;;;5.15;2.83;;;20.20;99.00;;;;;;5036654;28;20041;-75
2022/07/31 08:47:09;;;;;;;7.20;2.75;;;20.20;99.00;;;;;;5032655;28;20040;-75
2022/07/31 08:49:43;;;;;;;4.25;2.70;;;20.30;98.90;;;;;;5034091;28;20048;-75
2022/07/31 08:52:20;;;;;;;5.70;2.45;;;20.30;99.10;;;;;;5035880;28;20402;-75
2022/07/31 08:54:48;;;;;;;3.63;2.28;;;20.30;99.30;;;;;;5038698;28;20442;-75
2022/07/31 08:57:14;;;;;;;4.25;2.83;;;20.30;99.00;;;;;;5037136;28;20428;-75
2022/07/31 08:59:41;;;;;;;3.92;2.58;;;20.20;99.10;;;;;;5033980;28;20041;-75
2022/07/31 09:02:07;;;;;;;5.10;2.97;;;20.30;99.10;;;;;;5037165;28;20331;-75
2022/07/31 09:04:33;;;;;;;4.80;2.50;;;20.30;99.10;;;;;;5035512;28;20041;-75
2022/07/31 09:07:00;;;;;;;4.28;2.50;;;20.40;99.30;;;;;;5034355;28;20045;-76
2022/07/31 09:09:26;;;;;;;4.40;2.25;;;20.30;99.30;;;;;;5038095;28;20521;-76
2022/07/31 09:11:53;;;;;;;3.65;2.10;;;20.30;99.30;;;;;;5018486;28;20044;-75
2022/07/31 09:14:31;;;;;;;3.50;2.50;;;20.20;99.40;;;;;;5012555;28;20091;-76
2022/07/31 09:16:57;;;;;;;3.35;2.05;;;20.20;99.90;;;;;;5030358;28;20103;-75
2022/07/31 09:19:34;;;;;;;4.15;2.42;;;20.10;99.70;;;;;;5035144;28;20060;-72
2022/07/31 09:21:59;;;;;;;5.47;2.70;;;20.10;99.90;;;;;;5035055;28;20067;-72
2022/07/31 09:24:28;;;;;;;4.05;2.53;;;20.00;99.90;;;;;;5032709;28;20033;-74
2022/07/31 09:27:07;;;;;;;3.47;2.42;;;20.00;99.90;;;;;;5037574;28;20075;-74
2022/07/31 09:29:35;;;;;;;4.80;2.15;;;19.90;99.90;;;;;;5040675;28;20037;-75
2022/07/31 09:32:07;;;;;;;4.80;2.55;;;19.90;99.90;;;;;;5021802;28;20056;-75
2022/07/31 09:34:33;;;;;;;5.88;2.97;;;19.90;99.90;;;;;;5038523;28;20041;-75
2022/07/31 09:37:11;;;;;;;3.55;2.35;;;19.80;99.90;;;;;;5035381;28;20041;-75
2022/07/31 09:39:37;;;;;;;4.40;2.83;;;19.80;99.90;;;;;;5036136;28;20060;-74
2022/07/31 09:42:04;;;;;;;4.47;2.33;;;19.80;99.90;;;;;;5037676;28;20041;-74
2022/07/31 09:44:42;;;;;;;4.38;2.05;;;19.80;99.90;;;;;;5033791;28;21312;-74
2022/07/31 09:47:20;;;;;;;5.63;2.70;;;19.80;99.90;;;;;;5052874;28;20136;-74
2022/07/31 09:49:52;;;;;;;4.40;2.13;;;19.80;99.90;;;;;;5036111;28;20071;-74
2022/07/31 09:52:20;;;;;;;6.05;2.83;;;19.80;99.90;;;;;;5034904;28;20048;-74
2022/07/31 09:54:46;;;;;;;4.82;2.50;;;19.80;99.90;;;;;;5038397;28;20433;-74
2022/07/31 09:57:13;;;;;;;5.07;2.65;;;19.90;99.90;;;;;;5035796;28;20125;-74
2022/07/31 09:59:39;;;;;;;5.00;3.05;;;19.90;99.90;;;;;;5034497;28;20040;-74
2022/07/31 10:02:07;;;;;;;3.92;2.28;;;20.00;99.90;;;;;;5037685;28;20033;-73
2022/07/31 10:04:36;;;;;;;4.35;2.90;;;20.10;99.90;;;;;;5035686;28;20103;-73
2022/07/31 10:07:02;;;;;;;5.30;2.42;;;20.20;99.90;;;;;;5035278;28;20715;-74
2022/07/31 10:09:29;;;;;;;9.25;3.53;;;20.20;99.90;;;;;;5033399;28;20051;-74
2022/07/31 10:11:57;;;;;;;3.55;2.35;;;20.20;99.90;;;;;;5028810;28;20498;-75
2022/07/31 10:14:29;;;;;;;5.28;2.83;;;20.20;99.90;;;;;;5032649;28;20075;-74
2022/07/31 10:16:58;;;;;;;6.03;2.95;;;20.10;99.90;;;;;;5035959;28;20482;-74
2022/07/31 10:19:30;;;;;;;5.05;2.85;;;20.10;99.90;;;;;;5035596;28;20049;-74
2022/07/31 10:22:00;;;;;;;4.68;2.45;;;20.10;99.90;;;;;;5020317;28;20263;-73
2022/07/31 10:24:27;;;;;;;3.85;2.40;;;20.00;99.90;;;;;;5035881;28;20643;-73
2022/07/31 10:26:57;;;;;;;5.43;2.92;;;20.00;99.90;;;;;;5038332;28;20049;-74
2022/07/31 10:29:25;;;;;;;5.35;3.00;;;20.10;99.90;;;;;;5028744;28;20053;-74
2022/07/31 10:31:50;;;;;;;4.57;2.58;;;20.10;99.90;;;;;;5038610;28;20036;-74
2022/07/31 10:34:16;;;;;;;5.50;3.05;;;20.10;99.90;;;;;;5033752;28;20520;-73
2022/07/31 10:36:45;;;;;;;4.47;2.95;;;20.10;99.90;;;;;;5037790;28;20422;-73
2022/07/31 10:39:30;;;;;;;5.25;2.70;;;20.10;99.90;;;;;;5037295;28;20040;-73
2022/07/31 10:42:06;;;;;;;7.27;3.13;;;20.10;99.90;;;;;;5036290;28;20881;-73
2022/07/31 10:44:47;;;;;;;4.15;2.58;;;20.10;99.90;;;;;;5035492;28;20045;-73
2022/07/31 10:47:13;;;;;;;9.88;3.97;;;20.10;99.90;;;;;;5039075;28;20045;-73
2022/07/31 10:49:44;;;;;;;9.77;3.47;;;20.10;99.90;;;;;;5035604;28;20033;-73
2022/07/31 10:52:09;;;;;;;4.28;2.65;;;20.10;99.90;;;;;;5032006;28;20068;-73
2022/07/31 10:54:43;;;;;;;4.53;2.83;;;20.20;99.90;;;;;;5038361;28;20072;-74
2022/07/31 10:57:21;;;;;;;5.00;2.92;;;20.20;99.90;;;;;;5037194;28;20052;-73
2022/07/31 10:59:46;;;;;;;7.07;3.00;;;20.20;99.90;;;;;;5033872;28;20498;-73
2022/07/31 11:02:12;;;;;;;4.97;2.72;;;20.20;99.90;;;;;;5025711;28;21374;-73
2022/07/31 11:04:38;;;;;;;4.80;2.92;;;20.10;99.90;;;;;;5010324;28;20040;-73
2022/07/31 11:07:14;;;;;;;5.13;3.13;;;20.20;99.90;;;;;;5030915;28;20041;-73
2022/07/31 11:09:40;;;;;;;4.45;2.65;;;20.20;99.90;;;;;;5032446;28;20346;-73
2022/07/31 11:12:19;;;;;;;4.32;2.55;;;20.20;99.90;;;;;;5035363;28;20029;-73
2022/07/31 11:14:45;;;;;;;7.65;2.95;;;20.20;99.90;;;;;;5031858;28;20033;-73
2022/07/31 11:17:10;;;;;;;7.13;3.35;;;20.20;99.90;;;;;;5033650;28;20533;-73
2022/07/31 11:19:40;;;;;;;5.40;3.03;;;20.20;99.90;;;;;;5035811;28;20052;-73
2022/07/31 11:22:16;;;;;;;6.53;3.47;;;20.30;99.90;;;;;;5036587;28;20101;-73
2022/07/31 11:24:53;;;;;;;6.78;3.47;;;20.30;99.90;;;;;;5032675;28;20045;-73
2022/07/31 11:27:29;;;;;;;5.35;3.20;;;20.20;99.90;;;;;;5033023;28;20557;-73
2022/07/31 11:30:05;;;;;;;6.20;3.25;;;20.10;99.90;;;;;;5041906;28;20063;-73
2022/07/31 11:32:31;;;;;;;6.28;3.28;;;20.10;99.90;;;;;;5038369;28;20036;-73
2022/07/31 11:34:57;;;;;;;5.60;2.45;;;20.10;99.90;;;;;;5042971;28;20063;-73
2022/07/31 11:37:29;;;;;;;6.85;3.45;;;20.10;99.90;;;;;;5039028;28;20041;-73
2022/07/31 11:39:56;;;;;;;7.22;3.47;;;20.10;99.90;;;;;;5037440;28;20041;-81
2022/07/31 11:42:24;;;;;;;5.25;3.30;;;20.00;99.90;;;;;;5035805;28;20041;-73
2022/07/31 11:44:50;;;;;;;4.85;2.83;;;20.00;99.90;;;;;;5038404;28;20495;-70
2022/07/31 11:47:15;;;;;;;5.72;3.60;;;20.00;99.90;;;;;;5040225;28;20029;-73
2022/07/31 11:49:41;;;;;;;6.22;3.85;;;19.90;99.90;;;;;;5052369;28;20498;-73
2022/07/31 11:52:12;;;;;;;6.63;3.45;;;19.80;99.90;;;;;;5035901;28;20037;-73
2022/07/31 11:54:38;;;;;;;7.57;4.28;;;19.80;99.90;;;;;;5035425;28;20487;-73
2022/07/31 11:57:04;;;;;;;6.72;3.80;;;19.70;99.90;;;;;;5036721;28;20465;-73
2022/07/31 11:59:35;;;;;;;6.50;3.83;;;19.60;99.90;;;;;;5036959;28;20172;-73
2022/07/31 12:02:09;;;;;;;6.10;3.55;;;19.60;99.90;;;;;;5019028;28;20172;-73
2022/07/31 12:04:36;;;;;;;8.52;4.20;;;19.60;99.90;;;;;;5037968;28;20065;-73
2022/07/31 12:07:03;;;;;;;7.35;3.83;;;19.50;99.90;;;;;;5038084;28;20072;-73
2022/07/31 12:09:29;;;;;;;5.63;3.20;;;19.40;99.90;;;;;;5037784;28;20049;-73
2022/07/31 12:11:56;;;;;;;8.23;4.45;;;19.50;99.90;;;;;;5039998;28;20051;-73
2022/07/31 12:14:33;;;;;;;6.47;3.60;;;19.50;99.90;;;;;;5038363;28;20049;-73
2022/07/31 12:17:00;;;;;;;7.55;4.00;;;19.40;99.90;;;;;;5038138;28;20049;-73
2022/07/31 12:19:33;;;;;;;7.63;3.85;;;19.40;99.90;;;;;;5023096;28;20045;-73
2022/07/31 12:22:00;;;;;;;6.22;3.58;;;19.30;99.90;;;;;;5053451;28;20078;-73
2022/07/31 12:24:26;;;;;;;6.35;3.67;;;19.30;99.90;;;;;;5038936;28;20482;-73
2022/07/31 12:26:59;;;;;;;7.03;3.72;;;19.30;99.90;;;;;;5021917;28;20057;-73
2022/07/31 12:29:36;;;;;;;7.47;4.15;;;19.30;99.90;;;;;;5036969;28;20049;-73
2022/07/31 12:32:03;;;;;;;8.55;4.60;;;19.30;99.90;;;;;;5020895;28;20115;-73
2022/07/31 12:34:39;;;;;;;6.55;3.80;;;19.30;99.90;;;;;;5036923;28;20041;-73
2022/07/31 12:37:08;;;;;;;7.05;3.50;;;19.30;99.90;;;;;;5033830;28;20048;-73
2022/07/31 12:39:49;;;;;;;8.23;4.85;;;19.30;99.90;;;;;;5031675;28;20108;-73
2022/07/31 12:42:28;;;;;;;7.20;4.40;;;19.30;99.90;;;;;;5050012;28;20082;-73
2022/07/31 12:44:55;;;;;;;7.65;4.32;;;19.40;99.90;;;;;;5038627;28;20698;-73
2022/07/31 12:47:22;;;;;;;8.52;4.35;;;19.40;99.90;;;;;;5040011;28;20394;-73
2022/07/31 12:49:48;;;;;;;8.40;4.70;;;19.50;99.90;;;;;;5035996;28;20502;-73